Whitestone, Texas
Current Conditions -  °F | °C
As of 8:35 AM on Sunday 23 Nov 2014 (Local Time) from KRYW Reporting Station
Clear Clear  
Wind Chill: 57°   Ceiling: Unl
Heat Index: 57°   Visibility: 10mi
Dew Point: 53°   Wind: 9mph
Humidity: 85%   Direction: 240°WSW
Pressure: 29.67"   Gusts: NA
Location:  30.558°N, 97.9247°W
Report Text: KRYW 231435Z AUTO 24008KT 10SM CLR 14/12 A2967 RMK AO2 T01410116
Loading
Personal Weather Stations






























Interactive Weather Map New forecast layout! Learn more

10-Day Weather Forecast

Advertisements
Track Severe Weather on mobile